Terminal Aerodrome Forecast
Issued by NWS

Home | Current Version | Previous Version | Text Only | Print | Product List | Glossary On
Versions: 1 2 3 4 5 6 7 8 9 10 11 12 13 14 15 16 17 18 19 20 21 22 23 24 25
000
FTUS41 KRLX 240520
TAFCKB
TAF
KCKB 240520Z 2406/2506 01006KT P6SM SKC
     FM240700 00000KT 6SM BR SKC
      TEMPO 2407/2408 3SM BR SCT002
     FM240800 00000KT 1/4SM FG VV001
     FM241100 00000KT 1SM BR FEW001
     FM241300 06004KT P6SM SKC
     FM250100 VRB02KT P6SM SKC=

USA.gov is the U.S. government's official web portal to all federal, state and local government web resources and services.